sensor_id;sensor_type;location;lat;lon;timestamp;temperature;humidity
62259;DHT22;48241;48.824;10.102;2023-05-10T00:00:07;16.00;99.90
62259;DHT22;48241;48.824;10.102;2023-05-10T00:02:34;15.80;99.90
62259;DHT22;48241;48.824;10.102;2023-05-10T00:05:00;15.70;99.90
62259;DHT22;48241;48.824;10.102;2023-05-10T00:07:26;15.50;99.90
62259;DHT22;48241;48.824;10.102;2023-05-10T00:09:52;15.50;99.90
62259;DHT22;48241;48.824;10.102;2023-05-10T00:12:17;15.40;99.90
62259;DHT22;48241;48.824;10.102;2023-05-10T00:14:43;15.30;99.90
62259;DHT22;48241;48.824;10.102;2023-05-10T00:17:08;16.80;99.90
62259;DHT22;48241;48.824;10.102;2023-05-10T00:19:34;17.00;99.90
62259;DHT22;48241;48.824;10.102;2023-05-10T00:21:59;15.80;99.90
62259;DHT22;48241;48.824;10.102;2023-05-10T00:24:25;15.30;99.90
62259;DHT22;48241;48.824;10.102;2023-05-10T00:26:50;16.80;99.90
62259;DHT22;48241;48.824;10.102;2023-05-10T00:29:16;16.20;99.90
62259;DHT22;48241;48.824;10.102;2023-05-10T00:31:41;15.90;99.90
62259;DHT22;48241;48.824;10.102;2023-05-10T00:34:07;17.00;99.90
62259;DHT22;48241;48.824;10.102;2023-05-10T00:36:32;15.60;99.90
62259;DHT22;48241;48.824;10.102;2023-05-10T00:38:58;16.60;99.90
62259;DHT22;48241;48.824;10.102;2023-05-10T00:41:24;16.80;99.90
62259;DHT22;48241;48.824;10.102;2023-05-10T00:43:49;17.00;99.90
62259;DHT22;48241;48.824;10.102;2023-05-10T00:46:15;15.80;99.90
62259;DHT22;48241;48.824;10.102;2023-05-10T00:48:42;15.80;99.90
62259;DHT22;48241;48.824;10.102;2023-05-10T00:51:08;15.80;99.90
62259;DHT22;48241;48.824;10.102;2023-05-10T00:53:34;15.90;99.90
62259;DHT22;48241;48.824;10.102;2023-05-10T00:56:00;16.70;99.90
62259;DHT22;48241;48.824;10.102;2023-05-10T00:58:27;16.90;99.90
62259;DHT22;48241;48.824;10.102;2023-05-10T01:00:54;16.00;99.90
62259;DHT22;48241;48.824;10.102;2023-05-10T01:03:21;16.80;99.90
62259;DHT22;48241;48.824;10.102;2023-05-10T01:05:47;16.80;99.90
62259;DHT22;48241;48.824;10.102;2023-05-10T01:08:12;16.00;99.90
62259;DHT22;48241;48.824;10.102;2023-05-10T01:10:38;16.40;99.90
62259;DHT22;48241;48.824;10.102;2023-05-10T01:13:03;16.10;99.90
62259;DHT22;48241;48.824;10.102;2023-05-10T01:15:30;16.10;99.90
62259;DHT22;48241;48.824;10.102;2023-05-10T01:17:56;16.10;99.90
62259;DHT22;48241;48.824;10.102;2023-05-10T01:20:22;17.20;99.90
62259;DHT22;48241;48.824;10.102;2023-05-10T01:23:23;16.20;99.90
62259;DHT22;48241;48.824;10.102;2023-05-10T01:26:16;16.10;99.90
62259;DHT22;48241;48.824;10.102;2023-05-10T01:34:45;15.50;99.90
62259;DHT22;48241;48.824;10.102;2023-05-10T01:37:16;15.30;99.90
62259;DHT22;48241;48.824;10.102;2023-05-10T01:39:49;15.10;99.90
62259;DHT22;48241;48.824;10.102;2023-05-10T01:42:40;15.20;99.90
62259;DHT22;48241;48.824;10.102;2023-05-10T01:45:32;14.70;99.90
62259;DHT22;48241;48.824;10.102;2023-05-10T01:48:08;14.50;99.90
62259;DHT22;48241;48.824;10.102;2023-05-10T01:50:36;14.50;99.90
62259;DHT22;48241;48.824;10.102;2023-05-10T01:53:06;14.50;99.90
62259;DHT22;48241;48.824;10.102;2023-05-10T01:55:35;14.80;99.90
62259;DHT22;48241;48.824;10.102;2023-05-10T01:58:17;15.40;99.90
62259;DHT22;48241;48.824;10.102;2023-05-10T02:00:44;14.50;99.90
62259;DHT22;48241;48.824;10.102;2023-05-10T02:03:11;14.50;99.90
62259;DHT22;48241;48.824;10.102;2023-05-10T02:05:38;14.60;99.90
62259;DHT22;48241;48.824;10.102;2023-05-10T02:08:08;14.70;99.90
62259;DHT22;48241;48.824;10.102;2023-05-10T02:10:35;14.70;99.90
62259;DHT22;48241;48.824;10.102;2023-05-10T02:13:02;15.10;99.90
62259;DHT22;48241;48.824;10.102;2023-05-10T02:15:28;14.30;99.90
62259;DHT22;48241;48.824;10.102;2023-05-10T02:17:56;14.30;99.90
62259;DHT22;48241;48.824;10.102;2023-05-10T02:20:23;14.20;99.90
62259;DHT22;48241;48.824;10.102;2023-05-10T02:22:52;14.00;99.90
62259;DHT22;48241;48.824;10.102;2023-05-10T02:25:19;14.00;99.90
62259;DHT22;48241;48.824;10.102;2023-05-10T02:27:46;14.10;99.90
62259;DHT22;48241;48.824;10.102;2023-05-10T02:30:13;14.00;99.90
62259;DHT22;48241;48.824;10.102;2023-05-10T02:32:39;13.90;99.90
62259;DHT22;48241;48.824;10.102;2023-05-10T02:35:06;14.90;99.90
62259;DHT22;48241;48.824;10.102;2023-05-10T02:37:33;13.90;99.90
62259;DHT22;48241;48.824;10.102;2023-05-10T02:40:00;14.30;99.90
62259;DHT22;48241;48.824;10.102;2023-05-10T02:42:31;13.80;99.90
62259;DHT22;48241;48.824;10.102;2023-05-10T02:45:00;13.90;99.90
62259;DHT22;48241;48.824;10.102;2023-05-10T02:47:27;13.90;99.90
62259;DHT22;48241;48.824;10.102;2023-05-10T02:49:53;14.00;99.90
62259;DHT22;48241;48.824;10.102;2023-05-10T02:52:25;15.00;99.90
62259;DHT22;48241;48.824;10.102;2023-05-10T02:54:55;14.10;99.90
62259;DHT22;48241;48.824;10.102;2023-05-10T02:57:30;15.20;99.90
62259;DHT22;48241;48.824;10.102;2023-05-10T02:59:57;14.20;99.90
62259;DHT22;48241;48.824;10.102;2023-05-10T03:02:22;13.70;99.90
62259;DHT22;48241;48.824;10.102;2023-05-10T03:04:48;15.10;99.90
62259;DHT22;48241;48.824;10.102;2023-05-10T03:07:14;15.50;99.90
62259;DHT22;48241;48.824;10.102;2023-05-10T03:09:40;14.20;99.90
62259;DHT22;48241;48.824;10.102;2023-05-10T03:12:27;15.50;99.90
62259;DHT22;48241;48.824;10.102;2023-05-10T03:15:06;14.10;99.90
62259;DHT22;48241;48.824;10.102;2023-05-10T03:17:47;13.90;99.90
62259;DHT22;48241;48.824;10.102;2023-05-10T03:20:21;14.00;99.90
62259;DHT22;48241;48.824;10.102;2023-05-10T03:22:51;14.20;99.90
62259;DHT22;48241;48.824;10.102;2023-05-10T03:25:19;14.40;99.90
62259;DHT22;48241;48.824;10.102;2023-05-10T03:27:46;14.40;99.90
62259;DHT22;48241;48.824;10.102;2023-05-10T03:30:13;14.70;99.90
62259;DHT22;48241;48.824;10.102;2023-05-10T03:32:39;14.50;99.90
62259;DHT22;48241;48.824;10.102;2023-05-10T03:35:08;14.10;99.90
62259;DHT22;48241;48.824;10.102;2023-05-10T03:37:34;14.10;99.90
62259;DHT22;48241;48.824;10.102;2023-05-10T03:40:01;14.20;99.90
62259;DHT22;48241;48.824;10.102;2023-05-10T03:42:26;14.00;99.90
62259;DHT22;48241;48.824;10.102;2023-05-10T03:44:52;14.00;99.90
62259;DHT22;48241;48.824;10.102;2023-05-10T03:47:18;14.00;99.90
62259;DHT22;48241;48.824;10.102;2023-05-10T03:49:43;14.00;99.90
62259;DHT22;48241;48.824;10.102;2023-05-10T03:52:09;14.10;99.90
62259;DHT22;48241;48.824;10.102;2023-05-10T03:54:34;14.40;99.90
62259;DHT22;48241;48.824;10.102;2023-05-10T03:57:00;15.20;99.90
62259;DHT22;48241;48.824;10.102;2023-05-10T03:59:26;15.10;99.90
62259;DHT22;48241;48.824;10.102;2023-05-10T04:01:52;14.20;99.90
62259;DHT22;48241;48.824;10.102;2023-05-10T04:04:17;14.00;99.90
62259;DHT22;48241;48.824;10.102;2023-05-10T04:06:44;15.40;99.90
62259;DHT22;48241;48.824;10.102;2023-05-10T04:09:10;14.50;99.90
62259;DHT22;48241;48.824;10.102;2023-05-10T04:11:36;14.50;99.90
62259;DHT22;48241;48.824;10.102;2023-05-10T04:14:01;14.40;99.90
62259;DHT22;48241;48.824;10.102;2023-05-10T04:16:27;15.30;99.90
62259;DHT22;48241;48.824;10.102;2023-05-10T04:18:52;14.90;99.90
62259;DHT22;48241;48.824;10.102;2023-05-10T04:21:18;14.60;99.90
62259;DHT22;48241;48.824;10.102;2023-05-10T04:23:44;14.60;99.90
62259;DHT22;48241;48.824;10.102;2023-05-10T04:26:09;15.00;99.90
62259;DHT22;48241;48.824;10.102;2023-05-10T04:28:35;14.70;99.90
62259;DHT22;48241;48.824;10.102;2023-05-10T04:31:04;15.70;99.90
62259;DHT22;48241;48.824;10.102;2023-05-10T04:33:30;14.90;99.90
62259;DHT22;48241;48.824;10.102;2023-05-10T04:35:56;15.10;99.90
62259;DHT22;48241;48.824;10.102;2023-05-10T04:38:21;14.80;99.90
62259;DHT22;48241;48.824;10.102;2023-05-10T04:40:47;14.90;99.90
62259;DHT22;48241;48.824;10.102;2023-05-10T04:43:13;14.70;99.90
62259;DHT22;48241;48.824;10.102;2023-05-10T04:45:38;14.80;99.90
62259;DHT22;48241;48.824;10.102;2023-05-10T04:48:04;14.90;99.90
62259;DHT22;48241;48.824;10.102;2023-05-10T04:50:30;14.90;99.90
62259;DHT22;48241;48.824;10.102;2023-05-10T04:52:55;15.10;99.90
62259;DHT22;48241;48.824;10.102;2023-05-10T04:55:21;15.10;99.90
62259;DHT22;48241;48.824;10.102;2023-05-10T04:57:46;15.10;99.90
62259;DHT22;48241;48.824;10.102;2023-05-10T05:00:12;14.90;99.90
62259;DHT22;48241;48.824;10.102;2023-05-10T05:02:38;14.90;99.90
62259;DHT22;48241;48.824;10.102;2023-05-10T05:05:04;14.90;99.90
62259;DHT22;48241;48.824;10.102;2023-05-10T05:07:29;15.10;99.90
62259;DHT22;48241;48.824;10.102;2023-05-10T05:09:56;15.20;99.90
62259;DHT22;48241;48.824;10.102;2023-05-10T05:12:21;15.50;99.90
62259;DHT22;48241;48.824;10.102;2023-05-10T05:14:47;15.10;99.90
62259;DHT22;48241;48.824;10.102;2023-05-10T05:17:15;16.20;99.90
62259;DHT22;48241;48.824;10.102;2023-05-10T05:19:41;14.90;99.90
62259;DHT22;48241;48.824;10.102;2023-05-10T05:22:07;15.40;99.90
62259;DHT22;48241;48.824;10.102;2023-05-10T05:24:36;15.40;99.90
62259;DHT22;48241;48.824;10.102;2023-05-10T05:27:22;15.10;99.90
62259;DHT22;48241;48.824;10.102;2023-05-10T05:29:53;15.00;99.90
62259;DHT22;48241;48.824;10.102;2023-05-10T05:32:33;15.90;99.90
62259;DHT22;48241;48.824;10.102;2023-05-10T05:34:59;15.20;99.90
62259;DHT22;48241;48.824;10.102;2023-05-10T05:37:28;15.40;99.90
62259;DHT22;48241;48.824;10.102;2023-05-10T05:39:53;15.30;99.90
62259;DHT22;48241;48.824;10.102;2023-05-10T05:42:20;15.70;99.90
62259;DHT22;48241;48.824;10.102;2023-05-10T05:44:55;16.00;99.20
62259;DHT22;48241;48.824;10.102;2023-05-10T05:47:21;17.20;99.30
62259;DHT22;48241;48.824;10.102;2023-05-10T05:49:46;16.40;98.40
62259;DHT22;48241;48.824;10.102;2023-05-10T05:52:12;16.40;98.40
62259;DHT22;48241;48.824;10.102;2023-05-10T05:54:41;16.10;98.30
62259;DHT22;48241;48.824;10.102;2023-05-10T05:57:06;16.10;98.50
62259;DHT22;48241;48.824;10.102;2023-05-10T05:59:32;16.30;98.30
62259;DHT22;48241;48.824;10.102;2023-05-10T06:01:58;16.30;98.40
62259;DHT22;48241;48.824;10.102;2023-05-10T06:04:23;16.00;98.60
62259;DHT22;48241;48.824;10.102;2023-05-10T06:09:31;16.10;99.20
62259;DHT22;48241;48.824;10.102;2023-05-10T06:11:56;16.40;98.80
62259;DHT22;48241;48.824;10.102;2023-05-10T06:14:25;16.20;98.80
62259;DHT22;48241;48.824;10.102;2023-05-10T06:17:02;17.30;99.20
62259;DHT22;48241;48.824;10.102;2023-05-10T06:19:30;17.30;99.20
62259;DHT22;48241;48.824;10.102;2023-05-10T06:21:58;16.50;98.40
62259;DHT22;48241;48.824;10.102;2023-05-10T06:24:30;16.80;98.60
62259;DHT22;48241;48.824;10.102;2023-05-10T06:26:58;17.00;98.70
62259;DHT22;48241;48.824;10.102;2023-05-10T06:29:34;17.00;98.90
62259;DHT22;48241;48.824;10.102;2023-05-10T06:32:09;16.10;98.70
62259;DHT22;48241;48.824;10.102;2023-05-10T06:34:34;16.30;98.30
62259;DHT22;48241;48.824;10.102;2023-05-10T06:37:31;16.90;97.70
62259;DHT22;48241;48.824;10.102;2023-05-10T06:40:09;16.50;97.70
62259;DHT22;48241;48.824;10.102;2023-05-10T06:42:38;16.00;97.40
62259;DHT22;48241;48.824;10.102;2023-05-10T06:45:24;16.70;96.80
62259;DHT22;48241;48.824;10.102;2023-05-10T06:58:44;16.50;96.70
62259;DHT22;48241;48.824;10.102;2023-05-10T07:01:12;16.30;96.30
62259;DHT22;48241;48.824;10.102;2023-05-10T07:03:40;16.60;97.00
62259;DHT22;48241;48.824;10.102;2023-05-10T07:09:31;16.90;96.90
62259;DHT22;48241;48.824;10.102;2023-05-10T07:15:56;17.10;94.70
62259;DHT22;48241;48.824;10.102;2023-05-10T07:50:33;18.20;92.70
62259;DHT22;48241;48.824;10.102;2023-05-10T07:53:02;18.90;92.10
62259;DHT22;48241;48.824;10.102;2023-05-10T07:55:57;18.90;90.50
62259;DHT22;48241;48.824;10.102;2023-05-10T07:58:24;18.80;90.90
62259;DHT22;48241;48.824;10.102;2023-05-10T08:01:12;18.70;91.20
62259;DHT22;48241;48.824;10.102;2023-05-10T08:44:17;18.10;92.20
62259;DHT22;48241;48.824;10.102;2023-05-10T08:46:46;18.10;93.50
62259;DHT22;48241;48.824;10.102;2023-05-10T08:49:13;18.00;94.50
62259;DHT22;48241;48.824;10.102;2023-05-10T08:51:44;17.80;94.30
62259;DHT22;48241;48.824;10.102;2023-05-10T08:54:12;18.30;94.60
62259;DHT22;48241;48.824;10.102;2023-05-10T08:56:38;19.10;93.80
62259;DHT22;48241;48.824;10.102;2023-05-10T08:59:04;20.40;91.40
62259;DHT22;48241;48.824;10.102;2023-05-10T09:01:31;21.40;89.50
62259;DHT22;48241;48.824;10.102;2023-05-10T09:03:58;22.00;84.50
62259;DHT22;48241;48.824;10.102;2023-05-10T09:06:24;22.60;81.90
62259;DHT22;48241;48.824;10.102;2023-05-10T09:08:49;22.70;79.30
62259;DHT22;48241;48.824;10.102;2023-05-10T09:11:16;22.80;79.80
62259;DHT22;48241;48.824;10.102;2023-05-10T09:13:42;22.20;79.80
62259;DHT22;48241;48.824;10.102;2023-05-10T09:16:09;22.10;78.80
62259;DHT22;48241;48.824;10.102;2023-05-10T09:18:35;21.80;79.30
62259;DHT22;48241;48.824;10.102;2023-05-10T09:21:01;20.70;81.40
62259;DHT22;48241;48.824;10.102;2023-05-10T09:23:27;19.50;83.30
62259;DHT22;48241;48.824;10.102;2023-05-10T09:26:06;18.70;86.70
62259;DHT22;48241;48.824;10.102;2023-05-10T09:31:17;17.60;92.80
62259;DHT22;48241;48.824;10.102;2023-05-10T09:33:48;17.20;94.50
62259;DHT22;48241;48.824;10.102;2023-05-10T09:36:14;16.70;96.20
62259;DHT22;48241;48.824;10.102;2023-05-10T09:38:51;16.70;97.40
62259;DHT22;48241;48.824;10.102;2023-05-10T09:41:19;16.90;96.50
62259;DHT22;48241;48.824;10.102;2023-05-10T09:43:46;18.40;96.80
62259;DHT22;48241;48.824;10.102;2023-05-10T09:46:11;17.30;96.20
62259;DHT22;48241;48.824;10.102;2023-05-10T09:48:42;18.30;96.10
62259;DHT22;48241;48.824;10.102;2023-05-10T09:51:08;17.80;95.10
62259;DHT22;48241;48.824;10.102;2023-05-10T09:53:39;17.70;94.20
62259;DHT22;48241;48.824;10.102;2023-05-10T09:56:05;18.30;93.60
62259;DHT22;48241;48.824;10.102;2023-05-10T09:58:31;19.00;93.50
62259;DHT22;48241;48.824;10.102;2023-05-10T10:00:56;18.00;93.40
62259;DHT22;48241;48.824;10.102;2023-05-10T10:03:22;18.90;92.90
62259;DHT22;48241;48.824;10.102;2023-05-10T10:05:49;18.80;91.40
62259;DHT22;48241;48.824;10.102;2023-05-10T10:08:16;19.30;91.70
62259;DHT22;48241;48.824;10.102;2023-05-10T10:10:42;19.70;91.70
62259;DHT22;48241;48.824;10.102;2023-05-10T10:13:10;19.70;87.80
62259;DHT22;48241;48.824;10.102;2023-05-10T10:15:36;19.90;88.30
62259;DHT22;48241;48.824;10.102;2023-05-10T10:18:02;19.40;89.90
62259;DHT22;48241;48.824;10.102;2023-05-10T10:20:29;19.30;91.20
62259;DHT22;48241;48.824;10.102;2023-05-10T10:22:55;18.90;90.50
62259;DHT22;48241;48.824;10.102;2023-05-10T10:25:21;18.70;90.60
62259;DHT22;48241;48.824;10.102;2023-05-10T10:30:47;18.60;91.80
62259;DHT22;48241;48.824;10.102;2023-05-10T10:33:30;18.60;91.70
62259;DHT22;48241;48.824;10.102;2023-05-10T10:36:00;19.10;91.80
62259;DHT22;48241;48.824;10.102;2023-05-10T10:38:25;19.60;91.30
62259;DHT22;48241;48.824;10.102;2023-05-10T10:41:11;19.50;88.30
62259;DHT22;48241;48.824;10.102;2023-05-10T10:44:33;19.80;87.70
62259;DHT22;48241;48.824;10.102;2023-05-10T10:52:23;20.20;85.50
62259;DHT22;48241;48.824;10.102;2023-05-10T10:55:19;20.50;86.50
62259;DHT22;48241;48.824;10.102;2023-05-10T10:57:50;20.30;84.30
62259;DHT22;48241;48.824;10.102;2023-05-10T11:00:25;20.60;83.70
62259;DHT22;48241;48.824;10.102;2023-05-10T11:02:53;20.40;83.30
62259;DHT22;48241;48.824;10.102;2023-05-10T11:07:57;20.00;83.80
62259;DHT22;48241;48.824;10.102;2023-05-10T11:10:24;19.90;84.00
62259;DHT22;48241;48.824;10.102;2023-05-10T11:13:04;19.80;85.10
62259;DHT22;48241;48.824;10.102;2023-05-10T11:15:39;20.10;85.50
62259;DHT22;48241;48.824;10.102;2023-05-10T11:18:20;20.40;84.70
62259;DHT22;48241;48.824;10.102;2023-05-10T11:20:58;20.40;81.00
62259;DHT22;48241;48.824;10.102;2023-05-10T11:23:49;19.90;83.30
62259;DHT22;48241;48.824;10.102;2023-05-10T11:26:15;19.80;83.90
62259;DHT22;48241;48.824;10.102;2023-05-10T11:28:46;20.30;85.30
62259;DHT22;48241;48.824;10.102;2023-05-10T11:31:15;21.00;85.30
62259;DHT22;48241;48.824;10.102;2023-05-10T11:33:49;21.30;79.60
62259;DHT22;48241;48.824;10.102;2023-05-10T11:36:26;21.50;79.40
62259;DHT22;48241;48.824;10.102;2023-05-10T11:38:52;21.50;74.50
62259;DHT22;48241;48.824;10.102;2023-05-10T11:41:20;21.60;74.70
62259;DHT22;48241;48.824;10.102;2023-05-10T11:43:54;21.80;74.90
62259;DHT22;48241;48.824;10.102;2023-05-10T11:46:22;22.30;72.20
62259;DHT22;48241;48.824;10.102;2023-05-10T11:48:50;22.50;72.50
62259;DHT22;48241;48.824;10.102;2023-05-10T11:51:23;22.90;71.20
62259;DHT22;48241;48.824;10.102;2023-05-10T11:53:50;22.50;68.80
62259;DHT22;48241;48.824;10.102;2023-05-10T11:56:16;22.20;69.80
62259;DHT22;48241;48.824;10.102;2023-05-10T11:58:42;22.10;72.00
62259;DHT22;48241;48.824;10.102;2023-05-10T12:01:09;22.50;70.40
62259;DHT22;48241;48.824;10.102;2023-05-10T12:03:35;22.90;69.90
62259;DHT22;48241;48.824;10.102;2023-05-10T12:06:02;23.20;70.00
62259;DHT22;48241;48.824;10.102;2023-05-10T12:08:29;23.50;68.20
62259;DHT22;48241;48.824;10.102;2023-05-10T12:11:08;23.30;67.90
62259;DHT22;48241;48.824;10.102;2023-05-10T12:13:39;23.10;70.00
62259;DHT22;48241;48.824;10.102;2023-05-10T12:16:16;23.10;68.00
62259;DHT22;48241;48.824;10.102;2023-05-10T12:18:41;22.50;69.30
62259;DHT22;48241;48.824;10.102;2023-05-10T12:21:11;22.00;71.10
62259;DHT22;48241;48.824;10.102;2023-05-10T12:23:37;22.00;72.30
62259;DHT22;48241;48.824;10.102;2023-05-10T12:26:03;21.70;72.50
62259;DHT22;48241;48.824;10.102;2023-05-10T12:28:33;21.00;73.40
62259;DHT22;48241;48.824;10.102;2023-05-10T12:31:02;20.20;77.00
62259;DHT22;48241;48.824;10.102;2023-05-10T12:33:36;19.80;79.80
62259;DHT22;48241;48.824;10.102;2023-05-10T12:36:04;19.40;81.50
62259;DHT22;48241;48.824;10.102;2023-05-10T12:38:36;19.30;83.30
62259;DHT22;48241;48.824;10.102;2023-05-10T12:41:08;19.10;84.50
62259;DHT22;48241;48.824;10.102;2023-05-10T12:43:34;19.10;84.70
62259;DHT22;48241;48.824;10.102;2023-05-10T12:46:07;18.80;84.20
62259;DHT22;48241;48.824;10.102;2023-05-10T12:48:34;18.80;85.50
62259;DHT22;48241;48.824;10.102;2023-05-10T12:51:00;18.50;85.70
62259;DHT22;48241;48.824;10.102;2023-05-10T12:53:26;18.50;86.00
62259;DHT22;48241;48.824;10.102;2023-05-10T12:55:52;18.00;86.20
62259;DHT22;48241;48.824;10.102;2023-05-10T12:58:18;17.70;87.10
62259;DHT22;48241;48.824;10.102;2023-05-10T13:00:44;17.80;87.20
62259;DHT22;48241;48.824;10.102;2023-05-10T13:03:10;17.50;88.10
62259;DHT22;48241;48.824;10.102;2023-05-10T13:05:36;17.60;88.00
62259;DHT22;48241;48.824;10.102;2023-05-10T13:08:02;17.30;90.20
62259;DHT22;48241;48.824;10.102;2023-05-10T13:10:30;17.50;88.50
62259;DHT22;48241;48.824;10.102;2023-05-10T13:12:56;17.40;87.80
62259;DHT22;48241;48.824;10.102;2023-05-10T13:15:22;17.10;88.60
62259;DHT22;48241;48.824;10.102;2023-05-10T13:17:48;17.50;87.80
62259;DHT22;48241;48.824;10.102;2023-05-10T13:20:13;16.80;86.50
62259;DHT22;48241;48.824;10.102;2023-05-10T13:22:41;17.00;87.30
62259;DHT22;48241;48.824;10.102;2023-05-10T13:25:07;17.40;87.30
62259;DHT22;48241;48.824;10.102;2023-05-10T13:27:33;16.80;88.70
62259;DHT22;48241;48.824;10.102;2023-05-10T13:29:58;17.10;87.80
62259;DHT22;48241;48.824;10.102;2023-05-10T13:32:25;17.40;88.80
62259;DHT22;48241;48.824;10.102;2023-05-10T13:34:51;17.90;87.10
62259;DHT22;48241;48.824;10.102;2023-05-10T13:37:16;17.90;84.30
62259;DHT22;48241;48.824;10.102;2023-05-10T13:39:42;17.70;84.30
62259;DHT22;48241;48.824;10.102;2023-05-10T13:42:08;17.80;85.70
62259;DHT22;48241;48.824;10.102;2023-05-10T13:44:34;17.60;86.90
62259;DHT22;48241;48.824;10.102;2023-05-10T13:46:59;17.50;87.60
62259;DHT22;48241;48.824;10.102;2023-05-10T13:49:25;17.80;88.60
62259;DHT22;48241;48.824;10.102;2023-05-10T13:51:50;17.30;88.80
62259;DHT22;48241;48.824;10.102;2023-05-10T13:54:16;17.70;89.80
62259;DHT22;48241;48.824;10.102;2023-05-10T13:56:44;17.60;88.60
62259;DHT22;48241;48.824;10.102;2023-05-10T13:59:10;17.90;87.70
62259;DHT22;48241;48.824;10.102;2023-05-10T14:01:36;18.10;86.00
62259;DHT22;48241;48.824;10.102;2023-05-10T14:04:01;18.20;87.20
62259;DHT22;48241;48.824;10.102;2023-05-10T14:06:27;18.50;86.50
62259;DHT22;48241;48.824;10.102;2023-05-10T14:08:53;18.90;85.00
62259;DHT22;48241;48.824;10.102;2023-05-10T14:11:19;18.90;83.50
62259;DHT22;48241;48.824;10.102;2023-05-10T14:13:45;18.90;82.90
62259;DHT22;48241;48.824;10.102;2023-05-10T14:16:11;19.30;81.60
62259;DHT22;48241;48.824;10.102;2023-05-10T14:18:37;19.20;80.00
62259;DHT22;48241;48.824;10.102;2023-05-10T14:21:03;18.80;79.00
62259;DHT22;48241;48.824;10.102;2023-05-10T14:23:29;19.00;80.30
62259;DHT22;48241;48.824;10.102;2023-05-10T14:25:55;18.90;79.60
62259;DHT22;48241;48.824;10.102;2023-05-10T14:28:21;19.10;78.60
62259;DHT22;48241;48.824;10.102;2023-05-10T14:30:47;19.10;78.50
62259;DHT22;48241;48.824;10.102;2023-05-10T14:33:13;19.10;78.70
62259;DHT22;48241;48.824;10.102;2023-05-10T14:35:39;19.70;77.90
62259;DHT22;48241;48.824;10.102;2023-05-10T14:38:04;19.70;77.50
62259;DHT22;48241;48.824;10.102;2023-05-10T14:40:30;19.60;77.20
62259;DHT22;48241;48.824;10.102;2023-05-10T14:42:56;19.70;76.90
62259;DHT22;48241;48.824;10.102;2023-05-10T14:45:22;20.10;75.40
62259;DHT22;48241;48.824;10.102;2023-05-10T14:47:48;20.50;78.40
62259;DHT22;48241;48.824;10.102;2023-05-10T14:50:20;20.30;78.40
62259;DHT22;48241;48.824;10.102;2023-05-10T14:52:46;19.40;79.40
62259;DHT22;48241;48.824;10.102;2023-05-10T14:55:23;19.20;78.90
62259;DHT22;48241;48.824;10.102;2023-05-10T14:57:49;19.00;79.10
62259;DHT22;48241;48.824;10.102;2023-05-10T15:00:16;19.20;78.50
62259;DHT22;48241;48.824;10.102;2023-05-10T15:02:41;19.30;80.60
62259;DHT22;48241;48.824;10.102;2023-05-10T15:05:07;19.40;80.10
62259;DHT22;48241;48.824;10.102;2023-05-10T15:07:33;19.60;77.60
62259;DHT22;48241;48.824;10.102;2023-05-10T15:09:58;19.70;78.00
62259;DHT22;48241;48.824;10.102;2023-05-10T15:12:24;19.50;77.00
62259;DHT22;48241;48.824;10.102;2023-05-10T15:14:49;19.50;76.60
62259;DHT22;48241;48.824;10.102;2023-05-10T15:17:15;19.70;77.00
62259;DHT22;48241;48.824;10.102;2023-05-10T15:19:41;19.50;77.20
62259;DHT22;48241;48.824;10.102;2023-05-10T15:22:07;19.60;76.90
62259;DHT22;48241;48.824;10.102;2023-05-10T15:24:33;19.50;79.00
62259;DHT22;48241;48.824;10.102;2023-05-10T15:26:58;19.40;78.60
62259;DHT22;48241;48.824;10.102;2023-05-10T15:29:24;19.10;80.00
62259;DHT22;48241;48.824;10.102;2023-05-10T15:31:50;19.30;79.60
62259;DHT22;48241;48.824;10.102;2023-05-10T15:34:16;19.60;78.90
62259;DHT22;48241;48.824;10.102;2023-05-10T15:36:43;18.90;79.50
62259;DHT22;48241;48.824;10.102;2023-05-10T15:39:10;19.10;80.80
62259;DHT22;48241;48.824;10.102;2023-05-10T15:41:35;18.70;77.70
62259;DHT22;48241;48.824;10.102;2023-05-10T15:44:01;18.50;81.40
62259;DHT22;48241;48.824;10.102;2023-05-10T15:46:30;18.90;81.80
62259;DHT22;48241;48.824;10.102;2023-05-10T15:48:59;19.00;80.90
62259;DHT22;48241;48.824;10.102;2023-05-10T15:51:25;18.60;83.40
62259;DHT22;48241;48.824;10.102;2023-05-10T15:53:51;18.90;82.40
62259;DHT22;48241;48.824;10.102;2023-05-10T15:56:16;19.10;84.00
62259;DHT22;48241;48.824;10.102;2023-05-10T15:58:42;19.10;83.60
62259;DHT22;48241;48.824;10.102;2023-05-10T16:01:09;19.50;82.00
62259;DHT22;48241;48.824;10.102;2023-05-10T16:03:36;19.30;81.10
62259;DHT22;48241;48.824;10.102;2023-05-10T16:06:02;19.70;82.30
62259;DHT22;48241;48.824;10.102;2023-05-10T16:08:28;19.10;82.60
62259;DHT22;48241;48.824;10.102;2023-05-10T16:10:58;19.00;80.60
62259;DHT22;48241;48.824;10.102;2023-05-10T16:13:24;18.50;81.90
62259;DHT22;48241;48.824;10.102;2023-05-10T16:15:49;18.40;81.50
62259;DHT22;48241;48.824;10.102;2023-05-10T16:18:15;18.60;82.00
62259;DHT22;48241;48.824;10.102;2023-05-10T16:20:42;18.60;82.50
62259;DHT22;48241;48.824;10.102;2023-05-10T16:23:08;18.80;81.50
62259;DHT22;48241;48.824;10.102;2023-05-10T16:25:34;18.80;80.80
62259;DHT22;48241;48.824;10.102;2023-05-10T16:28:00;18.60;82.20
62259;DHT22;48241;48.824;10.102;2023-05-10T16:30:26;18.70;83.60
62259;DHT22;48241;48.824;10.102;2023-05-10T16:32:57;18.60;85.70
62259;DHT22;48241;48.824;10.102;2023-05-10T16:35:23;18.50;84.40
62259;DHT22;48241;48.824;10.102;2023-05-10T16:37:52;18.50;82.40
62259;DHT22;48241;48.824;10.102;2023-05-10T16:40:18;18.40;82.70
62259;DHT22;48241;48.824;10.102;2023-05-10T16:42:44;18.40;83.30
62259;DHT22;48241;48.824;10.102;2023-05-10T16:45:10;18.30;83.80
62259;DHT22;48241;48.824;10.102;2023-05-10T16:47:37;18.40;83.20
62259;DHT22;48241;48.824;10.102;2023-05-10T16:50:03;18.60;82.90
62259;DHT22;48241;48.824;10.102;2023-05-10T16:52:30;18.40;84.10
62259;DHT22;48241;48.824;10.102;2023-05-10T16:54:57;18.90;85.80
62259;DHT22;48241;48.824;10.102;2023-05-10T16:57:22;19.00;85.80
62259;DHT22;48241;48.824;10.102;2023-05-10T16:59:48;18.30;86.60
62259;DHT22;48241;48.824;10.102;2023-05-10T17:02:14;18.20;87.50
62259;DHT22;48241;48.824;10.102;2023-05-10T17:04:41;19.00;88.50
62259;DHT22;48241;48.824;10.102;2023-05-10T17:09:42;17.90;87.30
62259;DHT22;48241;48.824;10.102;2023-05-10T17:12:08;17.90;87.20
62259;DHT22;48241;48.824;10.102;2023-05-10T17:14:35;18.00;88.40
62259;DHT22;48241;48.824;10.102;2023-05-10T17:17:01;18.20;87.70